Accueil
METAR-TAF:

METAR-TAF

Aéroports :

Mae Sot, Thaïlande

latitude: 16-40N, longitude: 098-33E, altitude: 196 m

Observation

Le bulletin a été fait il y a 53 minutes, à 01:00 UTC
Vent 9 kt de est/nord-est, variant entre nord-est et est
Température 25°C
Humidité 47%
Pression 1019 hPa
Visibilité: 4000 m
brume sèche

METAR: VTPM 220100Z 07009KT 040V100 4000 HZ NSC 25/13 Q1019 BECMG 6000 NSW

Heure: 08:53 (01:53 UTC)

Prévision

Le bulletin a été fait il y a 2 heures et 53 minutes, à 23:00 UTC
Prévision valable du 22 à 00 UTC au 22 à 24 UTC
Vent 5 kt de est/nord-est
Visibilité: 4000 m
Quelques nuages à une hauteur de 2500 ft
brume
Evoluant progressivement
du 22 à 04 UTC au 22 à 06 UTC
Visibilité: 8000 m

TAF: VTPM 212300Z 2200/2224 07005KT 4000 BR FEW025 BECMG 2204/2206 8000 NSW

Observations et prévisions météorologiques de plus de 4000 aéroports (messages METAR et TAF).

Les stations disponibles sont représentées par des disques jaunes et rouges sur la carte.

Passer la souris dessus pour voir le nom de la station.

Cliquer dessus pour voir les observations et prévisions météorologiques.

Pour changer de carte: cliquez sur les boutons verts avec une croix noire pour zoomer, sur le bouton vert avec un tiret pour effectuer un zoom arrière, ou sur les flèches vertes pour les cartes adjacentes.


METAR-TAF: